Greentop, MO (63546)

6:42 PM CDT on July 29, 2016 (GMT -0500)
APRSWXNET | | Change Station

Elev 932 ft 40.52 °N, 92.52 °W | Updated 33 minutes ago

Clear
Clear
77 °F
Feels Like 79 °F
N
0
Wind Variable Wind from NNW
Gusts 0.0 mph

Today
High -- | Low -- °F
--% Chance of Precip.
Yesterday
High -- | Low -- °F
Precip. -- in
Pressure 29.96 in
Visibility 10.0 miles
Clouds Clear
Heat Index 79 °F
Dew Point 67 °F
Humidity 71%
Rainfall in
Snow Depth Not available.
6:05 AM 8:27 PM
Waning Crescent, 18% visible
METAR KIRK 292255Z AUTO 30010KT 10SM CLR 27/16 A2997 RMK AO2 SLP144 T02720156
Pressure 29.96 in
Visibility 10.0 miles
Clouds Clear
Heat Index 79 °F
Dew Point 67 °F
Humidity 71%
Rainfall in
Snow Depth Not available.
6:05 AM 8:27 PM
Waning Crescent, 18% visible
METAR KIRK 292255Z AUTO 30010KT 10SM CLR 27/16 A2997 RMK AO2 SLP144 T02720156

10-Day Weather Forecast

Almanac

Astronomy

Jul. 29, 2016 Rise Set
Actual Time
Civil Twilight
Nautical Twilight
Astronomical Twilight
Moon
Length of Visible Light
Length of Day
Tomorrow will be .
, % of the Moon is Illuminated

Today's Extremes

State Highs State Lows

Community

WunderPhotos

Upload Photos

1,928,447 photos uploaded!

WunderBlog® & News

Nearby

Air Quality

  Air Quality AQ Index Pollutant
Not available.

Snow Depth

Station Depth Elevation

Earthquake Activity

City Distance Mag. Time & Date
Minimum magnitude displayed is 2.5.

Coastal Water Temperatures

Place Temperature

Stations

Nearby Weather Stations

Station Location Temp. Windchill Dew Point Humidity Wind Precip. Elev Updated Type
                   

Watches & Warnings

There are currently no watches in effect.